Time;durP1;ratioP1;P1;durP2;ratioP2;P2;SDS_P1;SDS_P2;PMS_P1;PMS_P2;Temp;Humidity;BMP_temperature;BMP_pressure;BME280_temperature;BME280_humidity;BME280_pressure;Samples;Min_cycle;Max_cycle;Signal;HPM_P1;HPM_P2
2023/07/08 00:02:11;;;;;;;;;8.00;8.00;;;;;25.99;42.23;100775.06;5055775;28;45357;-68
2023/07/08 00:04:37;;;;;;;;;8.00;8.00;;;;;26.02;42.38;100776.47;5057925;28;45426;-69
2023/07/08 00:07:02;;;;;;;;;8.67;7.00;;;;;26.01;41.89;100781.09;5056069;28;47332;-68
2023/07/08 00:09:28;;;;;;;;;7.00;7.00;;;;;25.93;42.24;100783.38;5056748;28;45386;-68
2023/07/08 00:11:53;;;;;;;;;12.67;8.33;;;;;25.75;42.24;100777.06;5057462;28;45541;-69
2023/07/08 00:14:18;;;;;;;;;11.00;9.67;;;;;25.95;42.37;100797.59;5057206;28;49283;-68
2023/07/08 00:16:44;;;;;;;;;6.67;6.33;;;;;25.91;42.50;100797.25;5057328;28;46746;-69
2023/07/08 00:19:10;;;;;;;;;7.67;6.00;;;;;25.87;42.75;100789.81;5056805;28;45400;-67
2023/07/08 00:21:36;;;;;;;;;6.67;6.67;;;;;25.94;42.21;100795.94;5057315;28;45476;-67
2023/07/08 00:24:01;;;;;;;;;8.67;8.33;;;;;25.89;42.67;100783.06;5057342;28;45292;-68
2023/07/08 00:26:29;;;;;;;;;7.00;7.00;;;;;25.92;42.41;100798.09;5057168;28;45511;-68
2023/07/08 00:28:56;;;;;;;;;9.33;8.33;;;;;25.91;42.21;100799.97;5057019;28;45370;-67
2023/07/08 00:31:26;;;;;;;;;9.00;7.33;;;;;25.90;42.81;100795.59;5057044;28;45418;-67
2023/07/08 00:33:55;;;;;;;;;8.33;7.67;;;;;25.87;42.40;100807.00;5055973;28;45489;-66
2023/07/08 00:36:21;;;;;;;;;7.33;7.33;;;;;25.92;42.47;100804.34;5056902;28;47349;-67
2023/07/08 00:38:46;;;;;;;;;5.67;5.67;;;;;25.91;42.27;100818.22;5055264;28;45301;-67
2023/07/08 00:41:17;;;;;;;;;8.67;6.33;;;;;25.92;42.71;100825.31;5057009;28;45484;-68
2023/07/08 00:43:55;;;;;;;;;9.00;8.00;;;;;25.64;42.82;100786.09;5057045;28;45579;-67
2023/07/08 00:46:26;;;;;;;;;10.00;9.00;;;;;25.87;42.68;100822.50;5055347;28;47651;-68
2023/07/08 00:49:15;;;;;;;;;9.67;9.33;;;;;25.68;42.76;100800.06;5056682;28;45464;-68
2023/07/08 00:51:41;;;;;;;;;6.33;6.00;;;;;25.75;42.75;100804.31;5056446;28;45651;-67
2023/07/08 00:54:15;;;;;;;;;13.00;8.00;;;;;25.82;42.96;100814.22;5055208;28;45407;-68
2023/07/08 00:56:45;;;;;;;;;8.00;8.00;;;;;25.68;42.77;100792.75;5069795;27;46085;-68
2023/07/08 00:59:24;;;;;;;;;7.67;7.67;;;;;25.77;42.94;100818.50;5080526;27;45284;-68
2023/07/08 01:01:51;;;;;;;;;7.00;6.67;;;;;25.72;42.96;100801.25;5080125;27;45311;-67
2023/07/08 01:04:34;;;;;;;;;8.67;8.67;;;;;25.64;42.78;100791.53;5080764;28;45381;-68
2023/07/08 01:07:03;;;;;;;;;7.67;7.67;;;;;25.76;42.93;100805.13;5080314;27;46479;-70
2023/07/08 01:09:38;;;;;;;;;9.00;9.00;;;;;25.72;43.02;100804.78;5080096;27;45186;-67
2023/07/08 01:12:08;;;;;;;;;10.00;8.00;;;;;25.75;43.08;100815.19;5079998;28;45490;-69
2023/07/08 01:14:39;;;;;;;;;8.00;6.33;;;;;25.72;43.07;100826.56;5062201;27;45351;-68
2023/07/08 01:17:04;;;;;;;;;9.33;8.33;;;;;25.39;43.21;100782.84;5062167;28;47831;-67
2023/07/08 01:19:33;;;;;;;;;7.00;7.00;;;;;25.62;43.34;100825.50;5080028;28;45399;-67
2023/07/08 01:22:03;;;;;;;;;5.00;5.00;;;;;25.71;43.27;100830.38;5080410;27;45337;-67
2023/07/08 01:24:31;;;;;;;;;8.00;8.00;;;;;25.70;42.75;100817.81;5080292;27;45269;-68
2023/07/08 01:26:58;;;;;;;;;8.00;8.00;;;;;25.52;43.05;100790.75;5079970;28;45910;-68
2023/07/08 01:29:23;;;;;;;;;9.67;9.67;;;;;25.68;43.66;100819.13;5079471;27;45514;-68
2023/07/08 01:31:49;;;;;;;;;10.00;8.00;;;;;25.62;43.26;100815.44;5062017;28;45390;-68
2023/07/08 01:34:16;;;;;;;;;8.00;8.00;;;;;25.67;43.56;100826.47;5080326;28;45628;-68
2023/07/08 01:36:50;;;;;;;;;7.00;7.00;;;;;25.54;43.31;100804.94;5080045;28;46466;-68
2023/07/08 01:39:19;;;;;;;;;8.00;7.33;;;;;25.35;43.14;100778.94;5079611;27;45381;-68
2023/07/08 01:41:45;;;;;;;;;8.00;5.67;;;;;25.48;42.94;100808.63;5080060;28;45555;-68
2023/07/08 01:44:32;;;;;;;;;6.00;6.00;;;;;24.87;43.39;100739.28;5080333;28;45566;-68
2023/07/08 01:47:04;;;;;;;;;9.33;9.33;;;;;25.46;43.26;100876.09;5079818;28;46735;-68
2023/07/08 01:49:32;;;;;;;;;6.00;6.00;;;;;25.50;43.78;100930.88;5079791;28;45301;-68
2023/07/08 01:51:58;;;;;;;;;11.33;9.00;;;;;25.47;43.53;100934.91;5079986;27;45179;-68
2023/07/08 01:54:23;;;;;;;;;6.00;5.00;;;;;25.35;43.75;100926.75;5079939;27;45598;-67
2023/07/08 01:56:55;;;;;;;;;7.00;6.00;;;;;25.49;44.18;100949.13;5079187;27;45592;-68
2023/07/08 01:59:20;;;;;;;;;6.33;6.33;;;;;25.42;44.58;100941.06;5079201;28;45312;-67
2023/07/08 02:01:47;;;;;;;;;9.33;8.00;;;;;25.44;44.83;100938.13;5079530;27;45442;-67
2023/07/08 02:04:12;;;;;;;;;9.33;7.33;;;;;25.40;44.81;100950.53;5079697;28;45614;-67
2023/07/08 02:06:37;;;;;;;;;10.33;7.67;;;;;25.39;44.89;100963.31;5078258;28;46107;-67
2023/07/08 02:09:03;;;;;;;;;9.33;9.33;;;;;25.39;44.81;100949.69;5079119;28;45491;-68
2023/07/08 02:11:28;;;;;;;;;9.33;9.33;;;;;25.14;44.91;100921.88;5079626;28;45421;-67
2023/07/08 02:13:53;;;;;;;;;12.67;10.00;;;;;25.33;45.69;100956.09;5079555;27;45558;-67
2023/07/08 02:16:19;;;;;;;;;6.00;6.00;;;;;25.30;45.95;100953.84;5079271;27;46210;-68
2023/07/08 02:18:44;;;;;;;;;8.67;6.33;;;;;25.04;45.79;100900.72;5079326;27;45297;-68
2023/07/08 02:21:10;;;;;;;;;6.67;5.33;;;;;25.27;46.73;100931.72;5079287;27;45554;-68
2023/07/08 02:23:35;;;;;;;;;7.33;6.00;;;;;25.25;46.73;100936.59;5079522;28;45339;-68
2023/07/08 02:26:01;;;;;;;;;5.67;5.67;;;;;25.28;47.00;100936.94;5078895;28;46355;-68
2023/07/08 02:28:26;;;;;;;;;5.67;5.67;;;;;25.26;47.63;100924.63;5078703;28;45246;-68
2023/07/08 02:30:51;;;;;;;;;5.33;5.00;;;;;25.31;48.28;100920.13;5079311;28;45241;-68
2023/07/08 02:33:17;;;;;;;;;5.67;5.67;;;;;25.32;48.42;100926.41;5061089;28;45640;-69
2023/07/08 02:35:43;;;;;;;;;6.67;4.00;;;;;25.31;48.78;100920.13;5078859;27;46325;-68
2023/07/08 02:38:08;;;;;;;;;6.33;4.00;;;;;25.32;48.54;100923.69;5078840;28;45435;-68
2023/07/08 02:40:34;;;;;;;;;6.67;5.00;;;;;25.28;48.80;100914.34;5078743;28;45415;-68
2023/07/08 02:42:59;;;;;;;;;9.33;3.00;;;;;25.22;48.98;100917.97;5079362;28;45453;-67
2023/07/08 02:45:24;;;;;;;;;7.67;5.00;;;;;25.17;48.91;100905.91;5078580;28;45548;-68
2023/07/08 02:47:50;;;;;;;;;4.00;4.00;;;;;25.23;49.06;100903.31;5078818;27;45412;-68
2023/07/08 02:50:17;;;;;;;;;5.00;5.00;;;;;24.85;48.71;100836.59;5078877;27;45561;-68
2023/07/08 02:52:42;;;;;;;;;4.00;4.00;;;;;25.20;49.25;100891.00;5079208;28;45341;-67
2023/07/08 02:55:08;;;;;;;;;4.33;3.00;;;;;25.15;48.81;100891.72;5078095;28;52990;-67
2023/07/08 02:57:33;;;;;;;;;4.33;3.33;;;;;25.15;48.35;100889.00;5078515;27;45335;-69
2023/07/08 02:59:58;;;;;;;;;4.00;4.00;;;;;25.08;48.81;100877.41;5078564;28;45278;-67
2023/07/08 03:02:24;;;;;;;;;3.00;2.67;;;;;25.10;48.32;100888.91;5060707;28;45566;-66
2023/07/08 03:04:50;;;;;;;;;4.00;4.00;;;;;25.07;48.59;100883.94;5078668;27;45452;-67
2023/07/08 03:07:16;;;;;;;;;4.33;3.00;;;;;25.06;48.38;100887.72;5078672;28;45286;-67
2023/07/08 03:09:41;;;;;;;;;5.00;3.00;;;;;25.05;48.37;100879.78;5078567;27;45424;-68
2023/07/08 03:12:09;;;;;;;;;6.33;6.33;;;;;24.95;48.03;100868.63;5078869;27;45258;-68
2023/07/08 03:14:35;;;;;;;;;2.00;2.00;;;;;24.98;47.86;100879.84;5078543;27;46487;-68
2023/07/08 03:17:00;;;;;;;;;2.33;2.33;;;;;24.96;47.90;100879.25;5078241;27;45295;-67
2023/07/08 03:19:26;;;;;;;;;3.00;3.00;;;;;24.96;48.13;100873.00;5076657;27;45170;-67
2023/07/08 03:21:51;;;;;;;;;3.33;3.33;;;;;24.90;48.21;100860.34;5078792;28;45364;-67
2023/07/08 03:24:18;;;;;;;;;4.00;3.67;;;;;24.88;48.46;100868.75;5077970;28;46869;-68
2023/07/08 03:26:45;;;;;;;;;3.00;3.00;;;;;24.83;48.31;100855.03;5078116;27;45258;-67
2023/07/08 03:29:15;;;;;;;;;4.33;3.00;;;;;24.86;48.48;100863.53;5077634;27;45477;-67
2023/07/08 03:31:40;;;;;;;;;2.33;2.33;;;;;24.83;48.22;100849.59;5078301;27;45468;-68
2023/07/08 03:34:09;;;;;;;;;2.00;2.00;;;;;24.84;48.03;100851.25;5059726;27;46490;-67
2023/07/08 03:36:36;;;;;;;;;4.00;3.00;;;;;24.48;47.84;100792.47;5077955;28;45640;-67
2023/07/08 03:39:02;;;;;;;;;2.00;2.00;;;;;24.84;48.00;100848.53;5077910;28;45380;-68
2023/07/08 03:41:27;;;;;;;;;2.00;2.00;;;;;24.78;47.79;100822.25;5078121;27;45450;-68
2023/07/08 03:43:52;;;;;;;;;2.33;2.33;;;;;24.82;47.88;100842.47;5077933;28;46430;-68
2023/07/08 03:46:20;;;;;;;;;2.00;2.00;;;;;24.80;48.23;100834.56;5077934;27;45459;-68
2023/07/08 03:48:46;;;;;;;;;4.67;3.67;;;;;24.72;47.43;100817.78;5077993;28;45492;-68
2023/07/08 03:51:29;;;;;;;;;3.67;3.33;;;;;24.71;47.69;100805.25;5078227;28;45512;-68
2023/07/08 03:53:54;;;;;;;;;2.00;2.00;;;;;24.72;48.77;100809.63;5077555;27;46504;-68
2023/07/08 03:56:20;;;;;;;;;2.00;2.00;;;;;24.54;49.17;100792.34;5059458;28;45462;-66
2023/07/08 03:58:45;;;;;;;;;2.00;2.00;;;;;24.51;49.52;100802.84;5058901;27;45375;-68
2023/07/08 04:01:16;;;;;;;;;2.00;2.00;;;;;24.37;49.58;100788.66;5077946;27;45503;-66
2023/07/08 04:03:43;;;;;;;;;2.00;2.00;;;;;24.34;49.72;100789.13;5077624;28;46187;-69
2023/07/08 04:06:08;;;;;;;;;3.67;2.33;;;;;24.30;49.54;100778.97;5059411;28;45377;-66
2023/07/08 04:08:33;;;;;;;;;2.00;2.00;;;;;24.29;49.48;100780.84;5059217;28;45526;-66
2023/07/08 04:10:58;;;;;;;;;2.00;2.00;;;;;24.27;49.16;100770.19;5059181;28;45463;-66
2023/07/08 04:13:24;;;;;;;;;2.00;2.00;;;;;24.25;48.95;100775.03;5077033;28;51943;-68
2023/07/08 04:15:56;;;;;;;;;2.00;1.00;;;;;24.23;49.47;100763.56;5077411;28;45241;-69
2023/07/08 04:18:21;;;;;;;;;2.00;2.00;;;;;24.21;49.46;100754.78;5077399;28;45299;-68
2023/07/08 04:20:52;;;;;;;;;2.33;1.33;;;;;24.28;49.67;100768.28;5077636;27;45428;-68
2023/07/08 04:23:20;;;;;;;;;1.33;1.33;;;;;24.31;49.25;100765.13;5077344;28;45817;-69
2023/07/08 04:25:47;;;;;;;;;2.33;2.00;;;;;24.24;49.43;100753.53;5076860;28;45363;-68
2023/07/08 04:28:13;;;;;;;;;2.00;2.00;;;;;24.32;48.73;100765.97;5076999;28;45512;-67
2023/07/08 04:30:40;;;;;;;;;4.67;2.00;;;;;24.05;48.83;100741.09;5076505;28;45344;-68
2023/07/08 04:33:09;;;;;;;;;2.00;2.00;;;;;24.39;48.74;100791.97;5077200;28;45681;-68
2023/07/08 04:35:38;;;;;;;;;1.00;1.00;;;;;24.46;49.17;100802.75;5077233;28;45521;-68
2023/07/08 04:38:09;;;;;;;;;2.00;2.00;;;;;24.48;49.21;100809.59;5076975;28;45367;-68
2023/07/08 04:40:39;;;;;;;;;2.00;2.00;;;;;24.50;49.25;100814.78;5076964;27;45354;-68
2023/07/08 04:43:08;;;;;;;;;2.00;2.00;;;;;24.53;48.61;100817.88;5076899;28;46613;-68
2023/07/08 04:45:34;;;;;;;;;3.00;2.67;;;;;24.49;48.42;100811.25;5076652;28;45471;-68
2023/07/08 04:48:00;;;;;;;;;3.67;3.00;;;;;24.61;48.38;100816.69;5077054;28;45308;-68
2023/07/08 04:50:25;;;;;;;;;2.33;1.00;;;;;24.66;48.46;100821.44;5077218;28;45363;-68
2023/07/08 04:52:50;;;;;;;;;5.00;3.67;;;;;24.39;48.84;100783.81;5076336;27;45697;-68
2023/07/08 04:55:16;;;;;;;;;3.33;2.33;;;;;24.21;48.21;100749.34;5076751;28;45323;-67
2023/07/08 04:57:42;;;;;;;;;4.00;4.00;;;;;24.81;48.25;100844.34;5058512;28;45465;-67
2023/07/08 05:00:15;;;;;;;;;4.00;4.00;;;;;24.79;47.93;100834.78;5076921;28;45516;-67
2023/07/08 05:02:41;;;;;;;;;2.00;2.00;;;;;24.92;47.89;100850.88;5076662;27;45652;-67
2023/07/08 05:05:06;;;;;;;;;3.33;2.00;;;;;24.61;48.05;100791.38;5076583;27;45288;-67
2023/07/08 05:07:31;;;;;;;;;3.00;3.00;;;;;24.94;47.79;100851.47;5075560;27;45598;-69
2023/07/08 05:09:58;;;;;;;;;3.00;3.00;;;;;25.06;47.35;100854.25;5074970;28;45335;-67
2023/07/08 05:12:23;;;;;;;;;3.00;3.00;;;;;25.01;47.67;100841.31;5076556;28;46630;-67
2023/07/08 05:14:48;;;;;;;;;6.00;3.67;;;;;24.77;47.44;100796.97;5076549;28;45249;-67
2023/07/08 05:17:14;;;;;;;;;3.00;3.00;;;;;25.14;47.10;100851.97;5076789;28;45186;-68
2023/07/08 05:19:41;;;;;;;;;3.67;3.00;;;;;25.23;46.67;100852.47;5075952;28;45275;-68
2023/07/08 05:22:06;;;;;;;;;3.67;3.67;;;;;25.28;46.72;100854.47;5076280;28;45991;-68
2023/07/08 05:24:32;;;;;;;;;1.00;1.00;;;;;25.15;46.05;100845.47;5076263;28;45504;-68
2023/07/08 05:26:58;;;;;;;;;3.00;1.00;;;;;25.12;46.55;100850.56;5076532;27;45241;-68
2023/07/08 05:29:23;;;;;;;;;1.00;1.00;;;;;25.25;46.77;100893.03;5075540;28;45321;-68
2023/07/08 05:31:49;;;;;;;;;3.00;3.00;;;;;25.26;46.53;100920.00;5075551;28;45727;-68
2023/07/08 05:34:15;;;;;;;;;2.00;2.00;;;;;25.27;46.51;100924.38;5075579;28;45410;-67
2023/07/08 05:36:40;;;;;;;;;5.00;3.33;;;;;25.26;46.73;100916.47;5076218;27;45287;-67
2023/07/08 05:39:05;;;;;;;;;2.67;2.67;;;;;25.27;46.66;100904.50;5076445;27;45440;-69
2023/07/08 05:41:31;;;;;;;;;3.33;2.00;;;;;24.99;47.07;100867.94;5076962;28;45585;-69
2023/07/08 05:43:56;;;;;;;;;2.33;2.00;;;;;25.38;46.99;100925.44;5079670;28;45416;-67
2023/07/08 05:46:21;;;;;;;;;3.00;2.00;;;;;25.09;47.03;100870.91;5079510;28;45264;-67
2023/07/08 05:48:48;;;;;;;;;3.33;3.33;;;;;25.55;47.07;100944.59;5079818;28;45371;-69
2023/07/08 05:51:14;;;;;;;;;4.00;4.00;;;;;25.61;46.90;100936.31;5079275;27;46486;-69
2023/07/08 05:53:39;;;;;;;;;5.33;4.00;;;;;25.63;46.86;100934.19;5079548;28;45273;-68
2023/07/08 05:56:04;;;;;;;;;3.00;3.00;;;;;25.77;47.21;100943.78;5079359;27;45480;-67
2023/07/08 05:58:30;;;;;;;;;2.67;2.67;;;;;25.66;46.71;100913.84;5077954;27;45558;-69
2023/07/08 06:00:56;;;;;;;;;3.33;2.00;;;;;25.64;46.32;100902.34;5079050;27;49769;-67
2023/07/08 06:03:22;;;;;;;;;2.00;2.00;;;;;26.02;46.40;100945.38;5079447;27;45341;-67
2023/07/08 06:05:49;;;;;;;;;2.00;2.00;;;;;26.02;46.18;100918.13;5061039;28;45282;-68
2023/07/08 06:08:14;;;;;;;;;3.00;2.67;;;;;26.39;45.33;100905.00;5061701;27;45458;-67
2023/07/08 06:10:44;;;;;;;;;4.00;2.00;;;;;27.42;44.04;100971.13;5078863;27;46051;-68
2023/07/08 06:13:11;;;;;;;;;3.33;3.33;;;;;28.00;42.36;100992.47;5079149;27;45511;-68
2023/07/08 06:15:36;;;;;;;;;3.33;3.33;;;;;28.69;40.90;100998.25;5079328;28;45298;-68
2023/07/08 06:18:03;;;;;;;;;5.00;3.67;;;;;29.19;39.15;100985.31;5078285;27;45439;-67
2023/07/08 06:20:28;;;;;;;;;2.00;2.00;;;;;29.78;38.61;100988.78;5078884;27;45746;-68
2023/07/08 06:22:54;;;;;;;;;3.00;3.00;;;;;30.01;38.32;101000.41;5079301;28;45306;-68
2023/07/08 06:25:20;;;;;;;;;3.00;2.67;;;;;29.81;37.79;100971.78;5079010;28;45355;-68
2023/07/08 06:27:45;;;;;;;;;3.00;3.00;;;;;30.25;37.61;101018.13;5078800;28;45562;-68
2023/07/08 06:30:11;;;;;;;;;4.67;3.00;;;;;30.54;36.73;100999.25;5078838;27;46870;-68
2023/07/08 06:32:36;;;;;;;;;3.67;3.67;;;;;31.03;36.28;101012.53;5079023;28;45249;-68
2023/07/08 06:35:02;;;;;;;;;3.33;3.33;;;;;31.44;36.04;101005.19;5078868;27;45466;-68
2023/07/08 06:37:27;;;;;;;;;1.33;1.33;;;;;31.75;35.31;101001.28;5077307;28;45333;-68
2023/07/08 06:39:52;;;;;;;;;1.00;1.00;;;;;32.13;34.81;101014.66;5077921;27;62113;-67
2023/07/08 06:42:18;;;;;;;;;5.00;4.33;;;;;32.27;34.52;101021.22;5078781;28;45459;-67
2023/07/08 06:44:50;;;;;;;;;2.67;2.67;;;;;32.65;33.83;101025.16;5081044;27;45609;-68
2023/07/08 06:47:22;;;;;;;;;2.67;2.67;;;;;33.04;33.50;101035.38;5076070;28;45560;-68
2023/07/08 06:49:48;;;;;;;;;3.33;3.00;;;;;33.66;31.77;101026.34;5065093;27;47458;-68
2023/07/08 06:52:14;;;;;;;;;1.67;1.67;;;;;33.91;31.21;100989.41;5077724;27;45382;-67
2023/07/08 06:54:39;;;;;;;;;3.00;2.00;;;;;34.50;29.55;101031.47;5078500;28;45343;-68
2023/07/08 06:57:05;;;;;;;;;4.33;2.00;;;;;34.76;28.51;101030.78;5076773;28;45366;-69
2023/07/08 06:59:31;;;;;;;;;2.00;2.00;;;;;34.87;29.64;101038.97;5076516;28;47542;-67
2023/07/08 07:01:56;;;;;;;;;2.00;2.00;;;;;34.92;29.23;100995.50;5077043;27;45241;-68
2023/07/08 07:04:21;;;;;;;;;1.33;1.33;;;;;35.59;28.33;101037.50;5077316;27;45439;-68
2023/07/08 07:06:47;;;;;;;;;4.67;2.67;;;;;35.98;27.91;101047.28;5078299;27;45362;-68
2023/07/08 07:09:12;;;;;;;;;3.00;3.00;;;;;36.35;26.94;101037.97;5059615;28;47632;-68
2023/07/08 07:11:39;;;;;;;;;6.67;4.00;;;;;36.77;26.71;101045.06;5078160;28;45528;-68
2023/07/08 07:14:04;;;;;;;;;4.00;2.00;;;;;37.27;25.74;101038.69;5078102;28;47794;-68
2023/07/08 07:16:29;;;;;;;;;4.67;2.33;;;;;37.70;25.60;101052.78;5055901;28;46407;-68
2023/07/08 07:18:55;;;;;;;;;1.67;1.67;;;;;38.22;24.89;101045.53;5074862;27;45209;-68
2023/07/08 07:21:20;;;;;;;;;2.00;2.00;;;;;38.33;24.08;101037.72;5077050;27;45390;-68
2023/07/08 07:23:46;;;;;;;;;1.33;1.33;;;;;38.63;23.56;101044.31;5077090;27;45354;-68
2023/07/08 07:26:11;;;;;;;;;1.00;1.00;;;;;38.92;23.65;101040.91;5060044;28;45633;-67
2023/07/08 07:28:37;;;;;;;;;2.33;1.33;;;;;39.27;22.82;101046.47;5075723;28;46969;-68
2023/07/08 07:31:05;;;;;;;;;2.00;2.00;;;;;39.54;22.92;101030.22;5077896;28;45549;-68
2023/07/08 07:33:30;;;;;;;;;2.00;2.00;;;;;39.91;21.81;101050.06;5078055;27;45368;-68
2023/07/08 07:35:56;;;;;;;;;1.33;1.33;;;;;40.19;22.44;101032.91;5078024;28;45317;-68
2023/07/08 07:38:21;;;;;;;;;1.00;1.00;;;;;40.54;21.72;101033.53;5077843;28;45737;-69
2023/07/08 07:40:47;;;;;;;;;1.33;1.33;;;;;40.72;21.76;101013.53;5076842;27;45257;-67
2023/07/08 07:43:12;;;;;;;;;1.33;1.33;;;;;41.13;21.24;101014.66;5077236;27;45329;-68
2023/07/08 07:45:37;;;;;;;;;3.00;3.00;;;;;41.64;21.19;101032.00;5078016;28;45237;-67
2023/07/08 07:48:03;;;;;;;;;2.00;2.00;;;;;41.98;20.33;101035.53;5073331;27;46568;-68
2023/07/08 07:50:30;;;;;;;;;2.33;1.67;;;;;42.19;20.68;101031.47;5077609;28;45522;-68
2023/07/08 07:52:55;;;;;;;;;1.67;1.67;;;;;42.11;20.24;100998.91;5077780;28;45279;-69
2023/07/08 07:55:20;;;;;;;;;3.00;2.00;;;;;42.34;20.34;101037.53;5077829;27;45485;-69
2023/07/08 07:57:46;;;;;;;;;2.00;2.00;;;;;42.35;19.96;101044.75;5075582;28;45872;-69
2023/07/08 08:00:14;;;;;;;;;1.67;1.67;;;;;42.48;20.36;101055.59;5055142;28;45972;-69
2023/07/08 08:02:40;;;;;;;;;3.00;3.00;;;;;42.22;20.37;101038.34;5067669;28;45517;-68
2023/07/08 08:05:05;;;;;;;;;3.00;2.33;;;;;41.63;21.28;101055.50;5058114;28;45397;-71
2023/07/08 08:07:30;;;;;;;;;2.67;2.00;;;;;40.86;21.36;101059.88;5075746;28;45578;-68
2023/07/08 08:09:56;;;;;;;;;1.67;1.67;;;;;40.01;22.47;101065.59;5077100;27;45355;-69
2023/07/08 08:12:24;;;;;;;;;3.33;2.33;;;;;39.08;23.19;101028.19;5077449;27;45521;-69
2023/07/08 08:14:50;;;;;;;;;3.00;3.00;;;;;38.58;23.95;101061.94;5077273;28;45518;-69
2023/07/08 08:17:15;;;;;;;;;6.67;3.67;;;;;38.04;24.46;101063.25;5076814;28;45303;-69
2023/07/08 08:19:40;;;;;;;;;2.33;2.33;;;;;37.49;25.08;101049.75;5058838;28;46190;-68
2023/07/08 08:22:06;;;;;;;;;3.00;3.00;;;;;37.06;25.98;101061.34;5076201;28;45424;-68
2023/07/08 08:24:33;;;;;;;;;4.67;3.00;;;;;36.74;26.62;101061.50;5076874;27;45225;-69
2023/07/08 08:26:58;;;;;;;;;3.00;3.00;;;;;36.35;26.61;101070.38;5058802;28;48753;-70
2023/07/08 08:29:25;;;;;;;;;2.67;2.67;;;;;35.61;27.50;101017.81;5059665;28;45552;-68
2023/07/08 08:31:50;;;;;;;;;4.33;3.00;;;;;35.66;28.33;101082.19;5038338;28;45487;-70
2023/07/08 08:34:16;;;;;;;;;4.33;4.33;;;;;35.48;28.45;101091.34;5056566;28;45677;-70
2023/07/08 08:36:42;;;;;;;;;3.33;3.00;;;;;34.97;28.63;101038.78;5038035;28;47563;-68
2023/07/08 08:39:08;;;;;;;;;3.00;3.00;;;;;34.81;28.59;101045.63;5037938;28;46530;-69
2023/07/08 08:41:37;;;;;;;;;2.67;2.67;;;;;34.87;28.63;101086.75;5056665;28;45302;-70
2023/07/08 08:44:05;;;;;;;;;3.00;2.00;;;;;34.63;29.39;101080.41;5075176;27;45186;-68
2023/07/08 08:46:53;;;;;;;;;3.33;3.33;;;;;34.53;29.18;101086.91;5076396;27;46339;-68
2023/07/08 08:49:21;;;;;;;;;4.33;4.33;;;;;34.38;29.74;101081.56;5076204;27;46345;-71
2023/07/08 08:51:48;;;;;;;;;4.33;4.33;;;;;34.27;30.30;101088.31;5076433;28;45443;-70
2023/07/08 08:54:13;;;;;;;;;4.00;3.67;;;;;33.78;29.98;101036.94;5076340;27;45438;-68
2023/07/08 08:56:55;;;;;;;;;4.00;4.00;;;;;33.96;30.80;101093.34;5073831;27;46327;-68
2023/07/08 08:59:38;;;;;;;;;3.67;3.67;;;;;33.86;30.64;101083.25;5057706;28;45331;-68
2023/07/08 09:02:29;;;;;;;;;3.00;3.00;;;;;33.69;31.68;101077.31;5056868;28;45542;-77
2023/07/08 09:05:02;;;;;;;;;3.67;3.67;;;;;33.57;32.10;101074.94;5074688;28;45485;-73
2023/07/08 09:07:29;;;;;;;;;3.00;3.00;;;;;33.56;31.38;101087.06;5076310;28;45306;-68
2023/07/08 09:10:04;;;;;;;;;3.00;3.00;;;;;33.52;31.47;101094.28;5075993;27;45409;-70
2023/07/08 09:12:32;;;;;;;;;4.67;4.33;;;;;33.41;32.27;101090.78;5076365;27;45285;-70
2023/07/08 09:14:58;;;;;;;;;5.33;4.00;;;;;33.29;32.47;101095.81;5058181;28;45407;-71
2023/07/08 09:17:34;;;;;;;;;3.00;3.00;;;;;32.84;32.64;101026.16;5055681;28;47969;-70
2023/07/08 09:20:23;;;;;;;;;4.00;4.00;;;;;33.19;32.29;101095.88;5063337;28;45453;-70
2023/07/08 09:23:03;;;;;;;;;6.00;6.00;;;;;32.82;32.05;101042.13;5061350;28;45484;-70
2023/07/08 09:25:47;;;;;;;;;3.00;3.00;;;;;33.08;32.82;101088.81;5079103;27;45283;-68
2023/07/08 09:28:14;;;;;;;;;4.67;3.00;;;;;32.93;32.94;101075.94;5078982;27;46548;-67
2023/07/08 09:30:39;;;;;;;;;5.00;5.00;;;;;32.92;33.32;101091.66;5061050;28;45368;-69
2023/07/08 09:33:08;;;;;;;;;8.33;4.33;;;;;32.83;33.50;101079.56;5060963;28;45460;-70
2023/07/08 09:35:46;;;;;;;;;3.00;3.00;;;;;32.90;33.29;101096.63;5061408;28;45320;-70
2023/07/08 09:38:21;;;;;;;;;6.33;4.00;;;;;32.80;33.47;101088.41;5079543;27;47939;-67
2023/07/08 09:40:54;;;;;;;;;4.67;4.67;;;;;32.72;33.60;101082.66;5058804;27;45561;-68
2023/07/08 09:43:34;;;;;;;;;4.00;4.00;;;;;32.61;33.39;101077.19;5056486;28;45483;-69
2023/07/08 09:46:00;;;;;;;;;6.67;5.00;;;;;32.56;33.80;101087.41;5074209;27;45467;-68
2023/07/08 09:48:33;;;;;;;;;4.00;4.00;;;;;32.44;34.38;101089.66;5076566;28;46885;-69
2023/07/08 09:50:59;;;;;;;;;4.00;4.00;;;;;32.47;34.04;101094.63;5079485;28;45260;-69
2023/07/08 09:53:26;;;;;;;;;5.67;3.67;;;;;32.54;34.02;101093.19;5079277;28;45260;-70
2023/07/08 09:55:53;;;;;;;;;4.00;4.00;;;;;32.48;34.22;101074.25;5076949;28;45205;-69
2023/07/08 09:58:25;;;;;;;;;5.00;5.00;;;;;32.52;34.62;101075.31;5084947;27;46830;-68
2023/07/08 10:00:57;;;;;;;;;4.00;4.00;;;;;32.53;34.03;101082.47;5085508;27;46277;-68
2023/07/08 10:03:23;;;;;;;;;5.33;5.33;;;;;32.52;34.32;101076.16;5064465;27;45551;-70
2023/07/08 10:05:50;;;;;;;;;4.00;3.33;;;;;32.44;34.85;101067.63;5084506;27;45441;-70
2023/07/08 10:08:21;;;;;;;;;5.67;5.00;;;;;32.45;34.29;101072.06;5082203;27;45459;-67
2023/07/08 10:10:54;;;;;;;;;4.67;4.67;;;;;32.45;34.41;101075.63;5086640;27;45462;-72
2023/07/08 10:13:33;;;;;;;;;7.00;7.00;;;;;32.32;34.24;101051.47;5090613;27;45344;-69
2023/07/08 10:16:25;;;;;;;;;5.00;5.00;;;;;32.05;34.55;101016.06;5079269;27;45494;-68
2023/07/08 10:18:51;;;;;;;;;4.33;4.33;;;;;32.27;33.77;101063.31;5058510;28;45896;-69
2023/07/08 10:21:39;;;;;;;;;3.33;3.00;;;;;32.23;34.38;101070.44;5061574;28;45520;-69
2023/07/08 10:24:07;;;;;;;;;3.00;3.00;;;;;32.17;34.21;101068.81;5079268;28;45321;-68
2023/07/08 10:26:34;;;;;;;;;5.00;5.00;;;;;32.12;35.05;101071.59;5077919;27;45176;-69
2023/07/08 10:29:21;;;;;;;;;5.33;4.33;;;;;32.08;34.63;101065.00;5077681;28;45829;-70
2023/07/08 10:32:05;;;;;;;;;4.00;4.00;;;;;32.03;34.61;101073.25;5059753;28;45516;-72
2023/07/08 10:35:00;;;;;;;;;2.00;2.00;;;;;31.95;34.55;101076.59;5076212;27;45596;-69
2023/07/08 10:37:31;;;;;;;;;6.33;6.33;;;;;31.91;34.80;101081.00;5072851;28;45450;-69
2023/07/08 10:39:59;;;;;;;;;3.67;3.67;;;;;31.93;34.91;101076.03;5086038;27;45738;-68
2023/07/08 10:43:00;;;;;;;;;3.00;3.00;;;;;31.91;35.34;101079.06;5081138;27;45374;-69
2023/07/08 10:45:47;;;;;;;;;5.67;5.67;;;;;31.68;34.83;101052.97;5070067;28;45352;-69
2023/07/08 10:48:40;;;;;;;;;8.33;6.67;;;;;31.59;34.97;101051.84;5058456;28;45333;-70
2023/07/08 10:51:09;;;;;;;;;3.00;3.00;;;;;31.81;34.67;101081.00;5057698;28;46852;-70
2023/07/08 10:54:09;;;;;;;;;5.33;4.33;;;;;31.73;34.96;101074.97;5058480;28;45606;-68
2023/07/08 10:56:44;;;;;;;;;5.67;4.00;;;;;31.70;34.97;101081.00;5071716;27;45536;-69
2023/07/08 10:59:23;;;;;;;;;7.33;7.33;;;;;31.62;35.25;101067.78;5076819;27;45580;-69
2023/07/08 11:02:19;;;;;;;;;6.33;5.67;;;;;31.68;35.73;101085.94;5077415;27;46453;-69
2023/07/08 11:05:14;;;;;;;;;5.67;5.67;;;;;31.68;35.26;101083.19;5077339;28;45435;-70
2023/07/08 11:07:51;;;;;;;;;7.33;4.67;;;;;31.68;34.58;101085.94;5063537;27;45526;-68
2023/07/08 11:10:23;;;;;;;;;7.00;7.00;;;;;31.68;34.98;101074.94;5075435;28;45577;-69
2023/07/08 11:13:01;;;;;;;;;4.33;4.33;;;;;31.41;34.74;101019.44;5066553;28;46798;-70
2023/07/08 11:15:43;;;;;;;;;8.67;5.67;;;;;31.64;35.21;101057.38;5064084;28;45360;-69
2023/07/08 11:18:24;;;;;;;;;9.67;8.67;;;;;31.63;35.10;101057.63;5058359;28;45615;-68
2023/07/08 11:21:11;;;;;;;;;4.00;4.00;;;;;31.61;35.34;101062.56;5078048;27;45517;-68
2023/07/08 11:23:58;;;;;;;;;7.67;7.33;;;;;31.43;35.71;101050.22;5057756;28;47457;-69
2023/07/08 11:26:33;;;;;;;;;6.00;6.00;;;;;31.49;36.05;101062.88;5077308;28;45553;-69
2023/07/08 11:29:01;;;;;;;;;9.33;6.67;;;;;31.54;35.96;101060.13;5075834;28;45409;-69
2023/07/08 11:31:32;;;;;;;;;7.33;6.33;;;;;31.41;35.72;101041.41;5078296;27;45487;-67
2023/07/08 11:34:00;;;;;;;;;7.00;7.00;;;;;31.36;35.31;101052.44;5077618;28;46645;-70